createdAt,value
2018-11-03T00:01:18.293Z,0
2018-11-03T00:07:13.249Z,0
2018-11-03T00:13:08.255Z,0
2018-11-03T00:19:03.278Z,0
2018-11-03T00:24:58.259Z,0
2018-11-03T00:30:53.273Z,0
2018-11-03T00:36:48.308Z,0
2018-11-03T00:42:43.369Z,0
2018-11-03T00:48:38.289Z,0
2018-11-03T00:54:33.315Z,0
2018-11-03T01:00:28.315Z,0
2018-11-03T01:06:23.356Z,0
2018-11-03T01:12:18.309Z,0
2018-11-03T01:18:13.323Z,0
2018-11-03T01:24:08.309Z,0
2018-11-03T01:30:03.330Z,0
2018-11-03T01:35:58.314Z,0
2018-11-03T01:41:53.331Z,0
2018-11-03T01:47:48.337Z,0
2018-11-03T01:53:43.317Z,0
2018-11-03T01:59:38.332Z,0
2018-11-03T02:05:33.320Z,0
2018-11-03T02:11:28.390Z,0
2018-11-03T02:17:23.371Z,0
2018-11-03T02:23:18.390Z,0
2018-11-03T02:29:13.387Z,0
2018-11-03T02:35:08.409Z,0
2018-11-03T02:41:03.431Z,0
2018-11-03T02:46:58.384Z,0
2018-11-03T02:52:53.424Z,0
2018-11-03T02:58:48.486Z,0
2018-11-03T03:04:43.404Z,0
2018-11-03T03:10:38.443Z,0
2018-11-03T03:16:33.480Z,0
2018-11-03T03:22:28.420Z,0
2018-11-03T03:28:23.433Z,0
2018-11-03T03:34:18.448Z,0
2018-11-03T03:40:13.485Z,0
2018-11-03T03:46:08.469Z,0
2018-11-03T03:52:03.483Z,0
2018-11-03T03:57:58.496Z,0
2018-11-03T04:03:53.496Z,0
2018-11-03T04:09:48.469Z,0
2018-11-03T04:15:43.454Z,0
2018-11-03T04:21:38.492Z,0
2018-11-03T04:27:33.496Z,0
2018-11-03T04:33:28.487Z,0
2018-11-03T04:39:23.504Z,0
2018-11-03T04:45:18.525Z,0
2018-11-03T04:51:13.509Z,0
2018-11-03T04:57:08.538Z,0
2018-11-03T05:03:03.551Z,0
2018-11-03T05:08:58.514Z,0
2018-11-03T05:14:53.578Z,0
2018-11-03T05:20:48.544Z,0
2018-11-03T05:26:43.529Z,0
2018-11-03T05:32:38.548Z,0
2018-11-03T05:38:33.588Z,0
2018-11-03T05:44:28.538Z,0
2018-11-03T05:50:23.562Z,0
2018-11-03T05:56:18.554Z,0
2018-11-03T06:02:13.556Z,0
2018-11-03T06:08:08.587Z,0
2018-11-03T06:14:03.581Z,0
2018-11-03T06:19:58.553Z,0
2018-11-03T06:25:53.565Z,0
2018-11-03T06:31:48.502Z,0
2018-11-03T06:37:43.450Z,0
2018-11-03T06:43:38.498Z,0
2018-11-03T06:49:33.512Z,0
2018-11-03T06:55:28.492Z,0
2018-11-03T07:01:23.507Z,0
2018-11-03T07:07:18.614Z,0
2018-11-03T07:13:13.667Z,0
2018-11-03T07:19:08.643Z,0
2018-11-03T07:25:03.530Z,0
2018-11-03T07:30:58.508Z,0
2018-11-03T07:36:53.528Z,0
2018-11-03T07:42:48.624Z,0
2018-11-03T07:48:43.622Z,0
2018-11-03T07:54:38.572Z,0
2018-11-03T08:00:33.603Z,0
2018-11-03T08:06:28.515Z,0
2018-11-03T08:12:23.510Z,0
2018-11-03T08:18:18.590Z,0
2018-11-03T08:24:13.618Z,0
2018-11-03T08:30:08.512Z,0
2018-11-03T08:36:03.506Z,0
2018-11-03T08:47:53.690Z,0
2018-11-03T08:47:53.715Z,0
2018-11-03T08:53:48.670Z,0
2018-11-03T08:59:43.785Z,0
2018-11-03T09:05:38.574Z,0
2018-11-03T09:11:33.641Z,0
2018-11-03T09:17:28.620Z,0
2018-11-03T09:23:23.590Z,0
2018-11-03T09:29:18.634Z,0
2018-11-03T09:35:13.666Z,0
2018-11-03T09:41:08.658Z,0
2018-11-03T09:47:03.652Z,0
2018-11-03T09:52:58.670Z,0
2018-11-03T09:58:53.666Z,0
2018-11-03T10:04:48.689Z,0
2018-11-03T10:10:43.684Z,0
2018-11-03T10:16:38.658Z,0
2018-11-03T10:22:33.786Z,0
2018-11-03T10:28:28.654Z,0
2018-11-03T10:34:23.739Z,0
2018-11-03T10:40:18.674Z,0
2018-11-03T10:46:13.752Z,0
2018-11-03T10:52:08.693Z,0
2018-11-03T10:58:03.706Z,0
2018-11-03T11:03:58.748Z,0
2018-11-03T11:09:53.733Z,0
2018-11-03T11:15:48.837Z,0
2018-11-03T11:21:43.762Z,0
2018-11-03T11:27:38.725Z,0
2018-11-03T11:33:33.772Z,0
2018-11-03T11:39:30.054Z,4.1
2018-11-03T11:45:25.081Z,5.71
2018-11-03T11:51:20.040Z,1.77
2018-11-03T11:57:15.069Z,1.77
2018-11-03T12:03:10.077Z,2.14
2018-11-03T12:09:05.091Z,2.16
2018-11-03T12:15:00.056Z,1.52
2018-11-03T12:18:26.736Z,2.25
2018-11-03T12:24:21.730Z,1.8
2018-11-03T12:30:16.735Z,4.48
2018-11-03T12:36:11.762Z,4.13
2018-11-03T12:42:06.735Z,1.85
2018-11-03T12:48:01.745Z,4.67
2018-11-03T12:53:56.873Z,1.57
2018-11-03T12:59:51.793Z,3.16
2018-11-03T13:05:46.759Z,1.79
2018-11-03T13:11:41.783Z,3.63
2018-11-03T13:17:36.788Z,4.42
2018-11-03T13:23:31.782Z,2.57
2018-11-03T13:29:26.801Z,1.88
2018-11-03T13:35:21.815Z,2.09
2018-11-03T13:41:16.792Z,2.26
2018-11-03T13:47:11.919Z,2.68
2018-11-03T13:53:06.803Z,2.15
2018-11-03T13:59:01.816Z,2.4
2018-11-03T14:04:56.818Z,6.92
2018-11-03T14:10:51.839Z,2.26
2018-11-03T14:16:46.856Z,1.96
2018-11-03T14:22:41.846Z,3.01
2018-11-03T14:28:36.840Z,2.59
2018-11-03T14:34:31.867Z,2
2018-11-03T14:40:26.879Z,2.46
2018-11-03T14:46:21.970Z,2.08
2018-11-03T14:52:16.877Z,1.84
2018-11-03T14:58:11.864Z,2.13
2018-11-03T15:04:06.896Z,1.87
2018-11-03T15:10:01.899Z,2.36
2018-11-03T15:15:56.892Z,1.99
2018-11-03T15:21:51.903Z,3.61
2018-11-03T15:27:46.989Z,5.2
2018-11-03T15:33:41.906Z,2.74
2018-11-03T15:39:36.951Z,3.15
2018-11-03T15:45:31.896Z,2.07
2018-11-03T15:51:26.920Z,1.85
2018-11-03T15:57:21.913Z,2.2
2018-11-03T16:03:16.947Z,2.95
2018-11-03T16:09:11.978Z,3.18
2018-11-03T16:15:06.966Z,2.43
2018-11-03T16:21:01.950Z,2.56
2018-11-03T16:26:56.934Z,2.92
2018-11-03T16:32:52.071Z,2.61
2018-11-03T16:38:46.979Z,2.34
2018-11-03T16:44:41.986Z,1.8
2018-11-03T16:50:36.976Z,2.9
2018-11-03T16:56:31.988Z,2.19
2018-11-03T17:02:27.011Z,2.7
2018-11-03T17:08:22.038Z,2
2018-11-03T17:14:16.994Z,5.04
2018-11-03T17:20:11.993Z,2.39
2018-11-03T17:26:07.027Z,3.36
2018-11-03T17:32:02.084Z,2.56
2018-11-03T17:37:57.014Z,2.94
2018-11-03T17:43:52.025Z,2.29
2018-11-03T17:49:47.061Z,2.8
2018-11-03T17:52:22.708Z,3.03
2018-11-03T17:58:17.725Z,4.29
2018-11-03T18:04:12.717Z,4.08
2018-11-03T18:10:07.736Z,3.42
2018-11-03T18:16:02.725Z,3.03
2018-11-03T18:21:57.738Z,2.89
2018-11-03T18:27:52.811Z,3.19
2018-11-03T18:33:47.743Z,2.62
2018-11-03T18:39:42.766Z,5.06
2018-11-03T18:45:37.738Z,2.82
2018-11-03T18:51:32.747Z,3.14
2018-11-03T18:57:27.809Z,3.26
2018-11-03T19:03:22.760Z,5.03
2018-11-03T19:09:17.856Z,4.42
2018-11-03T19:15:12.832Z,4.73
2018-11-03T19:21:07.808Z,3.52
2018-11-03T19:27:02.805Z,3.3
2018-11-03T19:32:57.790Z,3.26
2018-11-03T19:38:52.781Z,4.3
2018-11-03T19:44:47.802Z,2.88
2018-11-03T19:50:42.840Z,4.57
2018-11-03T19:56:37.800Z,6.2
2018-11-03T20:02:32.954Z,3.31
2018-11-03T20:05:02.289Z,4.64
2018-11-03T20:10:57.306Z,4.52
2018-11-03T20:16:52.317Z,4.03
2018-11-03T20:20:08.662Z,3.88
2018-11-03T20:26:03.721Z,3.95
2018-11-03T20:31:58.777Z,3.33
2018-11-03T20:37:53.684Z,5.2
2018-11-03T20:43:48.674Z,4.87
2018-11-03T20:49:43.682Z,4.49
2018-11-03T20:55:38.713Z,2.47
2018-11-03T20:57:52.324Z,3.78
2018-11-03T21:03:47.323Z,2.87
2018-11-03T21:09:42.330Z,4.23
2018-11-03T21:15:37.345Z,3.36
2018-11-03T21:20:25.014Z,3.32
2018-11-03T21:26:20.044Z,3.78
2018-11-03T21:32:15.129Z,3.46
2018-11-03T21:38:10.102Z,5.76
2018-11-03T21:44:05.054Z,4.9
2018-11-03T21:50:00.091Z,6.04
2018-11-03T21:55:55.165Z,3.53
2018-11-03T22:01:50.081Z,3.23
2018-11-03T22:07:45.081Z,4.22
2018-11-03T22:13:40.132Z,8.37
2018-11-03T22:19:35.098Z,4.84
2018-11-03T22:25:30.100Z,2.96
2018-11-03T22:31:25.106Z,3.19
2018-11-03T22:37:20.110Z,4.5
2018-11-03T22:43:15.110Z,3.49
2018-11-03T22:49:10.120Z,3.04
2018-11-03T22:55:05.114Z,2.58
2018-11-03T23:01:00.166Z,3.72
2018-11-03T23:06:55.130Z,4.99
2018-11-03T23:11:15.430Z,3.26
2018-11-03T23:17:10.495Z,4.17
2018-11-03T23:23:05.447Z,4.5
2018-11-03T23:29:00.455Z,3.66
2018-11-03T23:34:55.449Z,5.01
2018-11-03T23:40:50.486Z,5.61
2018-11-03T23:46:45.450Z,3.3
2018-11-03T23:52:40.492Z,7.07
2018-11-03T23:58:35.501Z,4.93
